Aeroporto :
LOGIN :

Iscrizione | Disclaimer

   EN    FR    IT 

 










Sommario :    VFR   VFR Marginale   IFR   IFR Intensivo   IFR Molto Intensivo
Visibilità : 
Base nubi : 
>= 8 km
>= 3000ft
5 / 8 km
1000 / 3000 ft
1500m / 5 km
500 / 1000 ft
800 / 1500m
200 / 500 ft
< 800m
< 200 ft
Simboli :   Temporali  Nebbia  Neve Forte  Precipitazioni Forti  Vento > 20 kt
SIGMETs :   Varie  Temporali  Ghiacco  Turbolenza  Onda orograficha  Ceneri Vulcaniche






- Altitudine del aeroporto : 636 ft


EPLB - Lublin

ULTIMO METAR :
  • 020600Z 11010KT 4500 BR OVC006 06/05 Q1013

METARs OBSOLETI :
  • 020530Z 11010KT 4500 BR OVC006 06/05 Q1013
  • 020500Z 11009KT 4200 BR OVC006 06/05 Q1013
  • 020430Z 11010KT 4200 BR OVC005 06/05 Q1013
  • 012100Z 12009KT 8000 OVC009 06/05 Q1015
  • 020400Z 11010KT 4200 BR OVC005 06/05 Q1013
  • 020330Z 11009KT 4500 BR OVC006 06/05 Q1013
  • 020300Z 11008KT 4500 BR OVC006 06/05 Q1013
  • 020230Z 12008KT 4500 BR OVC006 06/05 Q1013
  • 020200Z 12011KT 5000 BR OVC006 06/05 Q1014
  • 020130Z 11010KT 5000 BR OVC007 06/05 Q1014
  • 020100Z 11008KT 5000 BR OVC007 06/05 Q1014

TAF TAF EPLB
Valido dal 02 a 06 ore il 03 a 06 ore UTC


020530Z 0206/0306 12010KT 7000 BKN006
TEMPO 0206/0209 3000 BR OVC004
BECMG 0208/0210 CAVOK
PROB30
TEMPO 0222/0306 BKN008



MetMap, La meteo Aeronautica in un colpo d'occhio ! - Copyright ORBIFLY Dicembre 2007 - Disclaimer

ORBIFLY MET'MAP TEAM :

Programmazione e sviluppo : Alexandra Zaïnal
Concezione : Baudouin d'Aumeries
Supporto tecnico e logistico : Manuel Goepfert
Aiuto : Marc-Olivier Méhu
Aiuto per la traduzione : Arnaldo La Scala




FONTI E CREDITI :

   NOAA